Sct Santiago — V7NF7 — position and weather

sailwx.info

Track history (hours):
 
Tides and Currents Weather Stations Pressure Air Temp Water Temp Dewpoint Dewpoint Depression Visibility Wind Speed Wind Dir Waves Ship Positions

Sct Santiago

Last reported at 2014-Oct-31 09:13 UTC. Time now 2014-Oct-31 20:06 UTC.
Position N 37°12' E 024°01'.

Length 294 m; draft 12.7 m.

Type: Cargo ship. MMSI: 538002953.

Date/timePositionNaut miles runAvg speedWind from/ knotsBaromVisibWave heightAir tempDewpointWater temp
2014-Oct-31 09:13N 37°12' E 024°01'1218.0
2014-Oct-31 08:31N 37°21' E 024°11'2020.3
2014-Oct-31 07:33N 37°36' E 024°27'4219.1
2014-Oct-31 05:22N 38°14' E 024°51'  
2014-Oct-26 06:23N 40°57' E 028°41'6 6.8
2014-Oct-26 05:30N 40°51' E 028°40'26015.0
2014-Oct-25 12:15N 37°52' E 024°37'1319.3
2014-Oct-25 11:33N 37°40' E 024°31'1919.5
2014-Oct-25 10:33N 37°25' E 024°15'2319.7
2014-Oct-25 09:23N 37°07' E 023°56'2220.1
2014-Oct-25 08:19N 36°52' E 023°38'45319.1
2014-Oct-24 08:33N 36°34' E 014°13'2020.0
2014-Oct-24 07:33N 36°38' E 013°49'91920.4
2014-Oct-22 10:32N 36°00' W 005°11'18220.2
2014-Oct-22 01:33N 36°28' W 008°53'2020.1
2014-Oct-22 00:33N 36°34' W 009°17'2020.0
2014-Oct-21 23:33N 36°49' W 009°33'2019.6
2014-Oct-21 22:33N 37°09' W 009°30'2121.2
2014-Oct-21 21:33N 37°26' W 009°15'2120.8
2014-Oct-21 20:33N 37°44' W 009°01'1414.4
2014-Oct-21 19:33N 37°56' W 008°51'0 0.0
2014-Oct-21 18:33N 37°56' W 008°51'0 0.0
2014-Oct-21 17:33N 37°56' W 008°51'0 0.0
2014-Oct-21 16:33N 37°56' W 008°51'0 0.0
2014-Oct-21 15:32N 37°56' W 008°51'0 0.0
2014-Oct-21 14:33N 37°56' W 008°51'0 0.0
2014-Oct-21 13:33N 37°56' W 008°51'0 0.0
2014-Oct-21 12:33N 37°56' W 008°51'0 0.0
2014-Oct-21 11:33N 37°56' W 008°51'0 0.0
2014-Oct-21 10:33N 37°56' W 008°51'0 0.0
2014-Oct-21 09:33N 37°56' W 008°51'  
Track history (hours):
 
Tides and Currents Weather Stations Pressure Air Temp Water Temp Dewpoint Dewpoint Depression Visibility Wind Speed Wind Dir Waves Ship Positions

Sct Santiago

Last reported at 2014-Oct-31 09:13 UTC. Time now 2014-Oct-31 20:06 UTC.
Position N 37°12' E 024°01'.

Length 294 m; draft 12.7 m.

Type: Cargo ship. MMSI: 538002953.

Date/timePositionNaut miles runAvg speedWind from/ knotsBaromVisibWave heightAir tempDewpointWater temp
2014-Oct-31 09:13N 37°12' E 024°01'1218.0
2014-Oct-31 08:31N 37°21' E 024°11'2020.3
2014-Oct-31 07:33N 37°36' E 024°27'4219.1
2014-Oct-31 05:22N 38°14' E 024°51'  
2014-Oct-26 06:23N 40°57' E 028°41'6 6.8
2014-Oct-26 05:30N 40°51' E 028°40'26015.0
2014-Oct-25 12:15N 37°52' E 024°37'1319.3
2014-Oct-25 11:33N 37°40' E 024°31'1919.5
2014-Oct-25 10:33N 37°25' E 024°15'2319.7
2014-Oct-25 09:23N 37°07' E 023°56'2220.1
2014-Oct-25 08:19N 36°52' E 023°38'45319.1
2014-Oct-24 08:33N 36°34' E 014°13'2020.0
2014-Oct-24 07:33N 36°38' E 013°49'91920.4
2014-Oct-22 10:32N 36°00' W 005°11'18220.2
2014-Oct-22 01:33N 36°28' W 008°53'2020.1
2014-Oct-22 00:33N 36°34' W 009°17'2020.0
2014-Oct-21 23:33N 36°49' W 009°33'2019.6
2014-Oct-21 22:33N 37°09' W 009°30'2121.2
2014-Oct-21 21:33N 37°26' W 009°15'2120.8
2014-Oct-21 20:33N 37°44' W 009°01'1414.4
2014-Oct-21 19:33N 37°56' W 008°51'0 0.0
2014-Oct-21 18:33N 37°56' W 008°51'0 0.0
2014-Oct-21 17:33N 37°56' W 008°51'0 0.0
2014-Oct-21 16:33N 37°56' W 008°51'0 0.0
2014-Oct-21 15:32N 37°56' W 008°51'0 0.0
2014-Oct-21 14:33N 37°56' W 008°51'0 0.0
2014-Oct-21 13:33N 37°56' W 008°51'0 0.0
2014-Oct-21 12:33N 37°56' W 008°51'0 0.0
2014-Oct-21 11:33N 37°56' W 008°51'0 0.0
2014-Oct-21 10:33N 37°56' W 008°51'0 0.0
2014-Oct-21 09:33N 37°56' W 008°51'  

Dump ship's entire track history